createdAt,value
2022-10-05T00:03:23.560Z,5.19
2022-10-05T00:06:37.475Z,5.19
2022-10-05T00:12:51.523Z,5.09
2022-10-05T00:16:01.549Z,5.01
2022-10-05T00:19:42.391Z,4.92
2022-10-05T00:22:48.488Z,4.84
2022-10-05T00:25:53.509Z,4.81
2022-10-05T00:36:57.364Z,4.87
2022-10-05T00:40:32.036Z,4.93
2022-10-05T00:43:57.459Z,4.98
2022-10-05T00:47:23.497Z,5.03
2022-10-05T00:57:57.268Z,4.92
2022-10-05T01:04:39.532Z,4.79
2022-10-05T01:07:48.508Z,4.76
2022-10-05T01:10:47.550Z,4.77
2022-10-05T01:17:19.526Z,4.84
2022-10-05T01:23:58.568Z,4.90
2022-10-05T01:27:21.014Z,4.90
2022-10-05T01:30:27.497Z,4.89
2022-10-05T01:37:03.575Z,4.77
2022-10-05T01:40:12.605Z,4.69
2022-10-05T02:06:18.616Z,4.62
2022-10-05T02:09:33.585Z,4.62
2022-10-05T02:12:53.485Z,4.58
2022-10-05T02:16:18.399Z,4.52
2022-10-05T02:23:24.805Z,4.42
2022-10-05T02:26:40.568Z,4.37
2022-10-05T02:33:39.507Z,4.41
2022-10-05T02:36:52.520Z,4.41
2022-10-05T02:40:02.472Z,4.43
2022-10-05T02:43:28.131Z,4.46
2022-10-05T02:50:00.909Z,4.43
2022-10-05T02:53:08.462Z,4.40
2022-10-05T02:56:25.578Z,4.37
2022-10-05T02:59:48.904Z,4.32
2022-10-05T03:03:06.484Z,4.26
2022-10-05T03:06:09.525Z,4.20
2022-10-05T03:09:22.507Z,4.13
2022-10-05T03:13:12.462Z,4.06
2022-10-05T03:16:33.182Z,3.99
2022-10-05T03:19:58.052Z,3.94
2022-10-05T03:23:17.535Z,3.93
2022-10-05T03:29:50.833Z,3.96
2022-10-05T03:33:01.021Z,4.02
2022-10-05T03:36:11.527Z,4.09
2022-10-05T03:39:24.579Z,4.17
2022-10-05T03:46:00.019Z,4.27
2022-10-05T03:49:22.034Z,4.29
2022-10-05T03:52:36.533Z,4.28
2022-10-05T03:55:48.483Z,4.28
2022-10-05T03:58:58.569Z,4.26
2022-10-05T04:02:07.757Z,4.22
2022-10-05T04:05:16.482Z,4.21
2022-10-05T04:08:34.943Z,4.22
2022-10-05T04:11:41.667Z,4.25
2022-10-05T04:14:53.531Z,4.28
2022-10-05T04:21:40.511Z,4.36
2022-10-05T04:24:20.942Z,4.38
2022-10-05T04:27:15.429Z,4.38
2022-10-05T04:29:56.093Z,4.36
2022-10-05T04:32:45.950Z,4.34
2022-10-05T04:35:54.137Z,4.31
2022-10-05T04:38:43.664Z,4.28
2022-10-05T04:41:34.423Z,4.28
2022-10-05T04:44:24.662Z,4.29
2022-10-05T04:47:24.967Z,4.31
2022-10-05T04:50:11.219Z,4.35
2022-10-05T04:53:00.156Z,4.40
2022-10-05T04:55:52.449Z,4.46
2022-10-05T04:58:42.356Z,4.51
2022-10-05T05:01:45.790Z,4.54
2022-10-05T05:04:41.436Z,4.57
2022-10-05T05:07:32.170Z,4.58
2022-10-05T05:10:36.383Z,4.58
2022-10-05T05:13:25.130Z,4.57
2022-10-05T05:16:06.737Z,4.55
2022-10-05T05:19:09.223Z,4.54
2022-10-05T05:22:04.244Z,4.55
2022-10-05T05:25:00.467Z,4.56
2022-10-05T05:27:43.277Z,4.59
2022-10-05T05:30:41.682Z,4.62
2022-10-05T05:36:56.136Z,4.78
2022-10-05T05:40:15.928Z,4.89
2022-10-05T05:50:38.565Z,5.18
2022-10-05T06:00:34.975Z,5.33
2022-10-05T06:03:44.870Z,5.35
2022-10-05T07:08:26.882Z,7.12
2022-10-05T07:19:03.043Z,7.50
2022-10-05T08:13:30.376Z,10.97
2022-10-05T08:21:55.269Z,11.62
2022-10-05T08:28:37.153Z,11.81
2022-10-05T08:31:45.116Z,11.96
2022-10-05T08:38:38.214Z,12.27
2022-10-05T08:42:18.201Z,12.33
2022-10-05T08:54:00.642Z,13.08
2022-10-05T08:57:26.042Z,13.01
2022-10-05T09:00:46.988Z,13.05
2022-10-05T09:04:01.274Z,13.40
2022-10-05T09:13:05.437Z,13.43
2022-10-05T09:16:11.191Z,13.22
2022-10-05T09:19:11.607Z,13.37
2022-10-05T09:22:16.833Z,13.47
2022-10-05T09:25:17.333Z,13.58
2022-10-05T09:28:06.023Z,13.81
2022-10-05T09:31:00.693Z,13.98
2022-10-05T09:34:05.649Z,14.19
2022-10-05T09:37:07.230Z,14.22
2022-10-05T09:40:28.673Z,14.18
2022-10-05T09:43:18.640Z,14.20
2022-10-05T09:46:21.761Z,14.12
2022-10-05T09:49:21.679Z,14.16
2022-10-05T09:52:37.619Z,14.39
2022-10-05T09:55:32.952Z,14.74
2022-10-05T09:58:23.412Z,14.97
2022-10-05T10:01:33.247Z,15.17
2022-10-05T10:04:24.824Z,15.44
2022-10-05T10:07:38.455Z,15.67
2022-10-05T10:10:34.105Z,15.92
2022-10-05T10:13:25.930Z,16.11
2022-10-05T10:16:38.153Z,16.30
2022-10-05T10:20:08.864Z,16.53
2022-10-05T10:23:05.670Z,16.61
2022-10-05T10:26:02.929Z,16.65
2022-10-05T10:28:44.833Z,16.69
2022-10-05T10:31:40.162Z,16.74
2022-10-05T10:34:37.721Z,16.65
2022-10-05T10:40:36.739Z,17.12
2022-10-05T10:47:49.813Z,17.52
2022-10-05T10:51:07.216Z,17.49
2022-10-05T10:57:22.383Z,17.66
2022-10-05T11:00:30.122Z,17.93
2022-10-05T11:03:32.469Z,18.14
2022-10-05T11:06:32.288Z,18.18
2022-10-05T11:09:30.146Z,17.71
2022-10-05T11:12:24.635Z,17.52
2022-10-05T11:15:19.640Z,17.65
2022-10-05T11:18:12.940Z,17.66
2022-10-05T11:21:13.956Z,18.04
2022-10-05T11:24:34.039Z,18.69
2022-10-05T11:27:49.750Z,19.62
2022-10-05T11:38:32.806Z,21.40
2022-10-05T11:41:51.901Z,21.20
2022-10-05T11:45:29.906Z,20.68
2022-10-05T11:51:44.075Z,21.77
2022-10-05T11:55:11.390Z,22.29
2022-10-05T11:58:21.023Z,22.83
2022-10-05T12:01:15.767Z,23.16
2022-10-05T12:03:59.647Z,23.39
2022-10-05T12:07:06.068Z,23.25
2022-10-05T12:10:09.748Z,22.03
2022-10-05T12:13:36.541Z,22.37
2022-10-05T12:16:59.663Z,22.90
2022-10-05T12:20:09.407Z,22.62
2022-10-05T12:23:18.248Z,21.43
2022-10-05T12:26:34.194Z,21.92
2022-10-05T12:29:20.356Z,22.01
2022-10-05T12:32:45.974Z,22.23
2022-10-05T12:39:42.316Z,22.74
2022-10-05T12:42:56.174Z,23.31
2022-10-05T12:45:48.955Z,23.44
2022-10-05T12:48:56.411Z,23.41
2022-10-05T12:51:49.495Z,23.26
2022-10-05T12:55:01.925Z,23.34
2022-10-05T12:58:05.503Z,23.93
2022-10-05T13:01:25.517Z,24.40
2022-10-05T13:04:32.243Z,24.33
2022-10-05T13:07:23.882Z,24.12
2022-10-05T13:10:29.600Z,24.27
2022-10-05T13:13:34.385Z,24.73
2022-10-05T13:17:34.069Z,25.48
2022-10-05T13:20:15.136Z,25.55
2022-10-05T13:23:15.509Z,24.93
2022-10-05T13:26:41.198Z,24.56
2022-10-05T13:29:43.869Z,25.08
2022-10-05T13:32:24.217Z,25.29
2022-10-05T13:35:17.232Z,25.50
2022-10-05T13:38:21.549Z,25.26
2022-10-05T13:41:14.767Z,24.84
2022-10-05T13:44:12.019Z,24.71
2022-10-05T13:47:02.254Z,24.63
2022-10-05T13:50:01.962Z,24.80
2022-10-05T13:53:28.670Z,24.93
2022-10-05T13:56:12.645Z,25.14
2022-10-05T13:59:21.759Z,25.31
2022-10-05T14:02:25.725Z,25.18
2022-10-05T14:05:01.108Z,25.11
2022-10-05T14:07:54.697Z,25.26
2022-10-05T14:10:46.725Z,25.10
2022-10-05T14:13:53.086Z,24.91
2022-10-05T14:17:32.175Z,24.80
2022-10-05T14:20:59.645Z,24.29
2022-10-05T14:27:23.697Z,23.81
2022-10-05T14:30:33.786Z,23.09
2022-10-05T14:33:45.474Z,22.81
2022-10-05T14:37:00.421Z,22.53
2022-10-05T14:40:10.569Z,21.94
2022-10-05T14:43:05.165Z,21.70
2022-10-05T14:46:13.814Z,21.56
2022-10-05T14:49:40.363Z,21.34
2022-10-05T14:52:52.619Z,21.16
2022-10-05T14:55:59.197Z,20.92
2022-10-05T14:59:16.624Z,20.47
2022-10-05T15:02:21.100Z,20.02
2022-10-05T15:09:38.168Z,19.03
2022-10-05T15:19:30.786Z,17.96
2022-10-05T15:22:43.555Z,17.73
2022-10-05T15:39:32.696Z,16.30
2022-10-05T15:42:58.448Z,16.05
2022-10-05T15:46:17.068Z,15.79
2022-10-05T15:49:22.667Z,15.55
2022-10-05T15:59:44.040Z,14.71
2022-10-05T16:03:15.367Z,14.41
2022-10-05T16:06:33.036Z,14.15
2022-10-05T16:12:49.042Z,13.71
2022-10-05T16:22:04.601Z,13.16
2022-10-05T16:29:21.620Z,12.79
2022-10-05T16:32:31.672Z,12.66
2022-10-05T16:45:46.151Z,12.24
2022-10-05T16:48:27.544Z,12.17
2022-10-05T16:51:17.526Z,12.06
2022-10-05T16:53:59.163Z,11.96
2022-10-05T16:56:37.284Z,11.88
2022-10-05T16:59:36.987Z,11.84
2022-10-05T17:02:37.426Z,11.78
2022-10-05T17:05:31.889Z,11.72
2022-10-05T17:08:38.935Z,11.67
2022-10-05T17:11:46.566Z,11.60
2022-10-05T17:14:28.863Z,11.49
2022-10-05T17:17:28.448Z,11.39
2022-10-05T17:20:29.487Z,11.26
2022-10-05T17:23:04.575Z,11.15
2022-10-05T17:25:51.114Z,11.07
2022-10-05T17:28:41.470Z,10.98
2022-10-05T17:31:21.918Z,10.91
2022-10-05T17:34:26.490Z,10.86
2022-10-05T17:37:15.596Z,10.75
2022-10-05T17:39:48.903Z,10.68
2022-10-05T17:42:51.668Z,10.71
2022-10-05T17:46:00.739Z,10.63
2022-10-05T17:48:42.168Z,10.62
2022-10-05T17:52:01.072Z,10.54
2022-10-05T17:54:51.416Z,10.53
2022-10-05T17:57:26.031Z,10.52
2022-10-05T18:00:00.487Z,10.46
2022-10-05T18:02:42.670Z,10.40
2022-10-05T18:05:22.233Z,10.38
2022-10-05T18:08:26.743Z,10.38
2022-10-05T18:11:17.045Z,10.39
2022-10-05T18:13:49.975Z,10.28
2022-10-05T18:16:53.935Z,10.18
2022-10-05T18:19:23.081Z,10.07
2022-10-05T18:22:05.897Z,10.00
2022-10-05T18:25:05.389Z,9.94
2022-10-05T18:28:10.505Z,9.88
2022-10-05T18:31:17.886Z,9.79
2022-10-05T18:34:18.646Z,9.68
2022-10-05T18:37:13.687Z,9.60
2022-10-05T18:40:23.705Z,9.51
2022-10-05T18:43:30.651Z,9.44
2022-10-05T18:46:39.815Z,9.40
2022-10-05T18:49:37.699Z,9.38
2022-10-05T18:52:50.731Z,9.37
2022-10-05T18:56:00.641Z,9.29
2022-10-05T18:59:16.666Z,9.22
2022-10-05T19:02:26.887Z,9.15
2022-10-05T19:05:47.556Z,9.09
2022-10-05T19:08:43.609Z,9.10
2022-10-05T19:11:51.677Z,9.11
2022-10-05T19:14:50.606Z,9.12
2022-10-05T19:17:44.702Z,9.13
2022-10-05T19:20:53.610Z,9.13
2022-10-05T19:23:57.671Z,9.12
2022-10-05T19:26:51.575Z,9.08
2022-10-05T19:29:45.698Z,9.04
2022-10-05T19:32:57.650Z,8.99
2022-10-05T19:35:52.675Z,8.93
2022-10-05T19:38:55.642Z,8.84
2022-10-05T19:41:52.230Z,8.78
2022-10-05T19:44:44.353Z,8.72
2022-10-05T19:47:41.300Z,8.65
2022-10-05T19:50:30.163Z,8.58
2022-10-05T19:53:21.076Z,8.51
2022-10-05T19:56:26.028Z,8.44
2022-10-05T19:58:56.588Z,8.38
2022-10-05T20:01:31.769Z,8.32
2022-10-05T20:04:01.210Z,8.25
2022-10-05T20:06:34.264Z,8.17
2022-10-05T20:09:20.058Z,8.10
2022-10-05T20:11:52.276Z,8.05
2022-10-05T20:14:30.446Z,8.00
2022-10-05T20:17:40.967Z,8.03
2022-10-05T20:20:25.100Z,8.11
2022-10-05T20:22:53.239Z,8.15
2022-10-05T20:25:41.490Z,8.15
2022-10-05T20:28:09.585Z,8.18
2022-10-05T20:30:38.784Z,8.20
2022-10-05T20:33:11.643Z,8.23
2022-10-05T20:35:39.674Z,8.20
2022-10-05T20:38:12.395Z,8.20
2022-10-05T20:40:43.136Z,8.19
2022-10-05T20:43:11.195Z,8.21
2022-10-05T20:45:43.467Z,8.18
2022-10-05T20:48:12.657Z,8.12
2022-10-05T20:50:40.855Z,8.10
2022-10-05T20:53:18.761Z,8.07
2022-10-05T20:55:47.168Z,8.06
2022-10-05T20:58:16.847Z,8.01
2022-10-05T21:01:03.637Z,7.97
2022-10-05T21:03:32.166Z,7.92
2022-10-05T21:06:00.134Z,7.86
2022-10-05T21:08:28.880Z,7.82
2022-10-05T21:10:57.153Z,7.76
2022-10-05T21:13:25.525Z,7.70
2022-10-05T21:15:53.835Z,7.66
2022-10-05T21:18:22.091Z,7.62
2022-10-05T21:20:50.557Z,7.58
2022-10-05T21:23:18.760Z,7.54
2022-10-05T21:25:48.664Z,7.52
2022-10-05T21:28:17.011Z,7.50
2022-10-05T21:30:45.014Z,7.51
2022-10-05T21:33:12.973Z,7.53
2022-10-05T21:35:48.728Z,7.56
2022-10-05T21:38:18.563Z,7.59
2022-10-05T21:40:47.949Z,7.61
2022-10-05T21:43:15.928Z,7.64
2022-10-05T21:45:45.672Z,7.68
2022-10-05T21:48:16.640Z,7.71
2022-10-05T21:50:45.760Z,7.77
2022-10-05T21:53:16.912Z,7.83
2022-10-05T21:55:48.435Z,7.86
2022-10-05T21:58:19.016Z,7.80
2022-10-05T22:00:47.628Z,7.75
2022-10-05T22:03:18.621Z,7.64
2022-10-05T22:05:46.694Z,7.60
2022-10-05T22:08:22.742Z,7.60
2022-10-05T22:10:53.066Z,7.56
2022-10-05T22:13:25.540Z,7.53
2022-10-05T22:15:57.704Z,7.48
2022-10-05T22:18:27.038Z,7.46
2022-10-05T22:20:55.889Z,7.42
2022-10-05T22:23:26.024Z,7.39
2022-10-05T22:25:54.199Z,7.37
2022-10-05T22:28:23.950Z,7.35
2022-10-05T22:30:53.312Z,7.33
2022-10-05T22:33:21.382Z,7.34
2022-10-05T22:35:49.444Z,7.35
2022-10-05T22:38:17.341Z,7.39
2022-10-05T22:40:45.397Z,7.44
2022-10-05T22:43:13.522Z,7.50
2022-10-05T22:45:42.641Z,7.57
2022-10-05T22:48:10.744Z,7.64
2022-10-05T22:50:38.813Z,7.69
2022-10-05T22:53:06.855Z,7.76
2022-10-05T22:55:35.358Z,7.81
2022-10-05T22:58:03.345Z,7.86
2022-10-05T23:00:53.366Z,7.88
2022-10-05T23:03:19.238Z,7.89
2022-10-05T23:05:47.243Z,7.86
2022-10-05T23:08:16.818Z,7.84
2022-10-05T23:10:47.168Z,7.78
2022-10-05T23:13:15.434Z,7.73
2022-10-05T23:15:44.947Z,7.66
2022-10-05T23:18:13.024Z,7.59
2022-10-05T23:20:41.058Z,7.52
2022-10-05T23:23:09.056Z,7.44
2022-10-05T23:25:40.269Z,7.38
2022-10-05T23:28:08.296Z,7.31
2022-10-05T23:30:36.381Z,7.25
2022-10-05T23:33:04.409Z,7.20
2022-10-05T23:35:32.384Z,7.17
2022-10-05T23:38:00.350Z,7.14
2022-10-05T23:40:28.409Z,7.15
2022-10-05T23:43:01.199Z,7.18
2022-10-05T23:45:29.494Z,7.21
2022-10-05T23:47:57.449Z,7.24
2022-10-05T23:50:27.249Z,7.28
2022-10-05T23:52:55.326Z,7.32
2022-10-05T23:55:23.204Z,7.37
2022-10-05T23:57:51.171Z,7.42
